Time;durP1;ratioP1;P1;durP2;ratioP2;P2;SDS_P1;SDS_P2;PMS_P1;PMS_P2;Temp;Humidity;BMP_temperature;BMP_pressure;BME280_temperature;BME280_humidity;BME280_pressure;Samples;Min_cycle;Max_cycle;Signal;HPM_P1;HPM_P2
2024/02/29 00:00:20;;;;;;;26.60;15.68;;;7.70;99.90;;;;;;5100498;28;20093;-77
2024/02/29 00:02:45;;;;;;;31.20;17.88;;;7.70;99.90;;;;;;5118810;28;20063;-77
2024/02/29 00:05:12;;;;;;;25.85;15.60;;;7.70;99.90;;;;;;5117863;28;20032;-77
2024/02/29 00:07:38;;;;;;;26.88;15.82;;;7.60;99.90;;;;;;5119107;28;20039;-77
2024/02/29 00:10:05;;;;;;;27.02;17.05;;;7.50;99.90;;;;;;5117705;28;20047;-77
2024/02/29 00:12:30;;;;;;;26.45;16.83;;;7.50;99.90;;;;;;5117909;28;20522;-77
2024/02/29 00:14:56;;;;;;;27.20;17.30;;;7.50;99.90;;;;;;5117472;28;20044;-77
2024/02/29 00:17:22;;;;;;;28.50;15.98;;;7.50;99.90;;;;;;5118549;28;20039;-77
2024/02/29 00:19:47;;;;;;;26.92;15.82;;;7.40;99.90;;;;;;5118665;28;20036;-76
2024/02/29 00:22:13;;;;;;;25.42;15.32;;;7.30;99.90;;;;;;5119633;28;20039;-77
2024/02/29 00:24:39;;;;;;;32.28;16.73;;;7.30;99.90;;;;;;5119545;28;20647;-76
2024/02/29 00:27:05;;;;;;;25.98;15.65;;;7.30;99.90;;;;;;5118499;28;20074;-76
2024/02/29 00:29:30;;;;;;;27.05;16.95;;;7.30;99.90;;;;;;5117869;28;20123;-77
2024/02/29 00:32:00;;;;;;;29.85;16.25;;;7.20;99.90;;;;;;5119279;28;20071;-77
2024/02/29 00:34:28;;;;;;;24.80;15.55;;;7.20;99.90;;;;;;5118769;28;20131;-77
2024/02/29 00:36:54;;;;;;;26.88;15.43;;;7.20;99.90;;;;;;5119297;28;20110;-76
2024/02/29 00:39:20;;;;;;;31.25;16.75;;;7.10;99.90;;;;;;5118860;27;20452;-76
2024/02/29 00:41:45;;;;;;;25.08;15.60;;;7.10;99.90;;;;;;5114691;28;20080;-76
2024/02/29 00:44:11;;;;;;;24.75;14.90;;;7.10;99.90;;;;;;5114870;28;20046;-76
2024/02/29 00:46:40;;;;;;;25.63;14.63;;;7.00;99.90;;;;;;5119070;28;20036;-77
2024/02/29 00:49:06;;;;;;;24.67;15.45;;;7.00;99.90;;;;;;5115193;28;20403;-76
2024/02/29 00:51:32;;;;;;;24.67;14.20;;;7.00;99.90;;;;;;5117254;28;20044;-77
2024/02/29 00:53:58;;;;;;;23.65;14.07;;;7.00;99.90;;;;;;5118583;28;20460;-77
2024/02/29 00:56:24;;;;;;;26.38;14.88;;;7.00;99.90;;;;;;5121772;28;20039;-77
2024/02/29 00:58:51;;;;;;;27.40;15.77;;;7.00;99.90;;;;;;5101005;28;20064;-77
2024/02/29 01:01:17;;;;;;;25.30;14.95;;;7.00;99.90;;;;;;5097334;28;20499;-77
2024/02/29 01:03:42;;;;;;;23.15;15.00;;;6.90;99.90;;;;;;5115787;28;20547;-76
2024/02/29 01:06:09;;;;;;;23.85;14.18;;;6.80;99.90;;;;;;5119765;28;20088;-77
2024/02/29 01:08:35;;;;;;;25.65;14.25;;;7.00;99.90;;;;;;5120070;28;20146;-76
2024/02/29 01:11:03;;;;;;;26.73;14.50;;;6.80;99.90;;;;;;5116424;28;20047;-77
2024/02/29 01:13:32;;;;;;;27.80;15.68;;;6.90;99.90;;;;;;5120894;28;20039;-76
2024/02/29 01:15:58;;;;;;;24.17;14.60;;;6.90;99.90;;;;;;5115204;28;20036;-77
2024/02/29 01:18:24;;;;;;;24.35;13.57;;;6.80;99.90;;;;;;5116866;28;20096;-76
2024/02/29 01:20:49;;;;;;;25.88;15.20;;;6.80;99.90;;;;;;5115060;28;20074;-76
2024/02/29 01:23:15;;;;;;;27.70;14.23;;;6.60;99.90;;;;;;5116552;28;20587;-76
2024/02/29 01:25:41;;;;;;;24.48;14.02;;;6.70;99.90;;;;;;5102040;28;20036;-76
2024/02/29 01:28:06;;;;;;;29.98;14.57;;;6.70;99.90;;;;;;5122747;28;20047;-76
2024/02/29 01:30:32;;;;;;;25.33;15.07;;;6.60;99.90;;;;;;5122606;28;20047;-76
2024/02/29 01:32:58;;;;;;;29.42;14.57;;;6.70;99.90;;;;;;5126460;28;20055;-76
2024/02/29 01:35:23;;;;;;;28.33;15.20;;;6.70;99.90;;;;;;5126887;28;20047;-76
2024/02/29 01:37:49;;;;;;;23.50;14.13;;;6.70;99.90;;;;;;5108536;28;20059;-76
2024/02/29 01:40:18;;;;;;;25.05;13.82;;;6.80;99.90;;;;;;5124611;28;20431;-76
2024/02/29 01:42:44;;;;;;;23.02;13.50;;;6.80;99.90;;;;;;5124813;28;20036;-77
2024/02/29 01:45:13;;;;;;;29.80;14.65;;;6.80;99.90;;;;;;5129069;28;20031;-77
2024/02/29 01:47:39;;;;;;;29.67;13.80;;;6.80;99.90;;;;;;5128954;28;20084;-77
2024/02/29 01:50:08;;;;;;;24.05;13.95;;;6.90;99.90;;;;;;5128018;28;20047;-77
2024/02/29 01:52:38;;;;;;;25.55;14.25;;;6.90;99.90;;;;;;5128347;27;20040;-77
2024/02/29 01:55:04;;;;;;;28.48;14.77;;;6.90;99.90;;;;;;5124279;28;20419;-77
2024/02/29 01:57:31;;;;;;;28.60;14.18;;;6.90;99.90;;;;;;5122544;28;20054;-77
2024/02/29 01:59:56;;;;;;;25.52;14.57;;;6.90;99.90;;;;;;5125372;28;20047;-77
2024/02/29 02:02:23;;;;;;;22.65;14.57;;;7.00;99.90;;;;;;5124721;28;20031;-77
2024/02/29 02:04:48;;;;;;;28.55;14.80;;;7.00;99.90;;;;;;5125964;28;20035;-77
2024/02/29 02:07:15;;;;;;;20.63;13.55;;;7.00;99.90;;;;;;5126065;28;20035;-77
2024/02/29 02:09:42;;;;;;;23.52;13.98;;;7.10;99.90;;;;;;5125160;28;20132;-77
2024/02/29 02:12:11;;;;;;;22.77;14.75;;;7.00;99.90;;;;;;5126397;28;20063;-77
2024/02/29 02:14:40;;;;;;;29.02;15.50;;;7.10;99.90;;;;;;5125636;28;20032;-77
2024/02/29 02:17:06;;;;;;;27.20;15.55;;;7.00;99.90;;;;;;5125943;27;20052;-77
2024/02/29 02:19:32;;;;;;;27.42;15.40;;;7.10;99.90;;;;;;5125347;28;20063;-77
2024/02/29 02:21:58;;;;;;;26.13;14.65;;;7.10;99.90;;;;;;5126658;28;20036;-77
2024/02/29 02:24:24;;;;;;;24.52;13.50;;;7.10;99.90;;;;;;5126901;28;20035;-77
2024/02/29 02:26:50;;;;;;;22.65;14.50;;;7.00;99.90;;;;;;5126321;28;20032;-77
2024/02/29 02:29:16;;;;;;;26.15;14.43;;;7.10;99.90;;;;;;5127397;28;20084;-77
2024/02/29 02:31:41;;;;;;;26.75;15.10;;;7.10;99.90;;;;;;5127810;28;20071;-77
2024/02/29 02:34:07;;;;;;;26.63;14.55;;;7.10;99.90;;;;;;5127678;28;20035;-77
2024/02/29 02:36:33;;;;;;;24.85;14.82;;;7.10;99.90;;;;;;5124427;28;20049;-76
2024/02/29 02:38:58;;;;;;;23.98;15.25;;;7.10;99.90;;;;;;5123298;28;20044;-77
2024/02/29 02:41:24;;;;;;;24.17;14.20;;;7.10;99.90;;;;;;5127148;28;20084;-76
2024/02/29 02:43:50;;;;;;;24.13;14.63;;;7.10;99.90;;;;;;5122004;28;20092;-77
2024/02/29 02:46:17;;;;;;;29.88;16.05;;;7.10;99.90;;;;;;5121517;28;20032;-77
2024/02/29 02:48:44;;;;;;;24.33;13.85;;;7.10;99.90;;;;;;5119684;28;20051;-77
2024/02/29 02:51:09;;;;;;;25.35;14.38;;;7.10;99.90;;;;;;5121217;28;20059;-77
2024/02/29 02:53:35;;;;;;;24.00;13.40;;;7.20;99.90;;;;;;5121168;28;20108;-77
2024/02/29 02:56:01;;;;;;;24.77;14.57;;;7.20;99.90;;;;;;5101001;28;20121;-77
2024/02/29 02:58:26;;;;;;;25.25;14.75;;;7.10;99.90;;;;;;5117753;28;20559;-77
2024/02/29 03:00:52;;;;;;;22.10;14.13;;;7.10;99.90;;;;;;5117856;28;20106;-77
2024/02/29 03:03:17;;;;;;;26.45;13.77;;;7.10;99.90;;;;;;5121044;28;20028;-77
2024/02/29 03:05:43;;;;;;;21.83;13.48;;;7.20;99.90;;;;;;5120826;28;20059;-77
2024/02/29 03:08:09;;;;;;;27.35;14.10;;;7.10;99.90;;;;;;5119658;28;20035;-77
2024/02/29 03:10:34;;;;;;;22.58;12.60;;;7.20;99.90;;;;;;5118533;28;20518;-77
2024/02/29 03:13:00;;;;;;;21.17;13.07;;;7.20;99.90;;;;;;5117781;28;20053;-77
2024/02/29 03:15:26;;;;;;;20.65;12.27;;;7.20;99.90;;;;;;5118130;28;20046;-76
2024/02/29 03:17:55;;;;;;;20.35;12.40;;;7.10;99.90;;;;;;5100952;28;20039;-77
2024/02/29 03:20:24;;;;;;;21.85;13.90;;;7.10;99.90;;;;;;5119384;28;20061;-76
2024/02/29 03:22:50;;;;;;;20.67;12.73;;;7.10;99.90;;;;;;5101229;28;20039;-77
2024/02/29 03:25:16;;;;;;;22.27;12.82;;;7.10;99.90;;;;;;5119626;28;20044;-77
2024/02/29 03:27:42;;;;;;;22.65;12.80;;;7.20;99.90;;;;;;5119474;27;20057;-77
2024/02/29 03:30:08;;;;;;;22.70;12.75;;;7.20;99.90;;;;;;5117679;28;20039;-76
2024/02/29 03:32:34;;;;;;;21.88;12.43;;;7.20;99.90;;;;;;5119497;28;20032;-76
2024/02/29 03:35:01;;;;;;;20.58;11.45;;;7.10;99.90;;;;;;5120965;28;20042;-77
2024/02/29 03:37:27;;;;;;;17.20;10.90;;;7.10;99.90;;;;;;5122395;28;20047;-77
2024/02/29 03:39:53;;;;;;;17.75;12.18;;;7.10;99.90;;;;;;5122287;28;20043;-77
2024/02/29 03:42:18;;;;;;;18.10;11.32;;;7.10;99.90;;;;;;5122573;28;20071;-77
2024/02/29 03:44:45;;;;;;;16.73;10.35;;;7.10;99.90;;;;;;5122689;28;20039;-77
2024/02/29 03:47:11;;;;;;;19.75;10.80;;;7.10;99.90;;;;;;5123294;28;20044;-77
2024/02/29 03:49:37;;;;;;;18.17;10.48;;;7.10;99.90;;;;;;5123472;28;20048;-77
2024/02/29 03:52:03;;;;;;;19.52;11.50;;;7.10;99.90;;;;;;5123179;28;20144;-77
2024/02/29 03:54:28;;;;;;;18.88;10.23;;;7.20;99.90;;;;;;5122797;28;20032;-77
2024/02/29 03:56:54;;;;;;;18.30;10.82;;;7.10;99.90;;;;;;5121456;28;20036;-77
2024/02/29 03:59:20;;;;;;;21.33;10.98;;;7.10;99.90;;;;;;5122539;28;20043;-77
2024/02/29 04:01:49;;;;;;;17.65;11.23;;;7.10;99.90;;;;;;5122785;28;20039;-77
2024/02/29 04:04:19;;;;;;;19.02;11.00;;;7.20;99.90;;;;;;5105844;28;20111;-77
2024/02/29 04:06:45;;;;;;;21.75;10.75;;;7.20;99.90;;;;;;5123016;27;20038;-77
2024/02/29 04:09:11;;;;;;;16.13;10.05;;;7.00;99.90;;;;;;5122402;27;20035;-77
2024/02/29 04:11:37;;;;;;;21.45;10.80;;;7.10;99.90;;;;;;5121919;28;20039;-77
2024/02/29 04:14:05;;;;;;;18.77;10.52;;;7.10;99.90;;;;;;5122231;28;20069;-77
2024/02/29 04:16:38;;;;;;;18.80;10.30;;;7.10;99.90;;;;;;5121167;28;20035;-77
2024/02/29 04:19:05;;;;;;;23.27;11.83;;;7.10;99.90;;;;;;5124116;28;20031;-77
2024/02/29 04:21:32;;;;;;;25.90;12.23;;;7.10;99.90;;;;;;5123165;28;20043;-77
2024/02/29 04:23:57;;;;;;;20.77;11.27;;;7.10;99.90;;;;;;5123362;28;20032;-77
2024/02/29 04:26:24;;;;;;;19.95;11.38;;;7.00;99.90;;;;;;5122159;28;20169;-77
2024/02/29 04:28:50;;;;;;;19.92;11.40;;;7.10;99.90;;;;;;5119444;28;20035;-77
2024/02/29 04:31:16;;;;;;;27.40;12.68;;;7.10;99.90;;;;;;5105758;28;20051;-77
2024/02/29 04:33:43;;;;;;;21.40;12.02;;;7.00;99.90;;;;;;5121384;28;20075;-77
2024/02/29 04:36:09;;;;;;;18.52;10.60;;;6.90;99.90;;;;;;5119606;28;20042;-77
2024/02/29 04:38:35;;;;;;;23.02;13.18;;;6.90;99.90;;;;;;5120584;28;20063;-77
2024/02/29 04:41:00;;;;;;;23.38;12.15;;;6.90;99.90;;;;;;5120499;28;20039;-76
2024/02/29 04:43:26;;;;;;;21.73;12.70;;;6.80;99.90;;;;;;5120841;28;20043;-77
2024/02/29 04:45:51;;;;;;;22.13;11.90;;;6.90;99.90;;;;;;5121418;22;20051;-69
2024/02/29 04:48:17;;;;;;;20.92;12.98;;;6.80;99.90;;;;;;5071319;28;20500;-69
2024/02/29 04:50:43;;;;;;;23.30;13.63;;;6.90;99.90;;;;;;5070808;28;20311;-69
2024/02/29 04:53:08;;;;;;;17.20;10.88;;;6.80;99.90;;;;;;5071652;28;20141;-69
2024/02/29 04:55:35;;;;;;;18.13;11.35;;;6.80;99.90;;;;;;5071333;28;20515;-69
2024/02/29 04:58:01;;;;;;;21.42;12.02;;;6.70;99.90;;;;;;5071568;28;20048;-69
2024/02/29 05:00:26;;;;;;;21.10;13.02;;;6.80;99.90;;;;;;5071381;28;20064;-69
2024/02/29 05:02:52;;;;;;;18.40;11.38;;;6.80;99.90;;;;;;5071029;28;20119;-69
2024/02/29 05:05:18;;;;;;;21.35;12.93;;;6.80;99.90;;;;;;5071052;28;20420;-69
2024/02/29 05:07:43;;;;;;;21.98;11.57;;;6.70;99.90;;;;;;5071700;28;20044;-69
2024/02/29 05:10:09;;;;;;;23.13;12.68;;;6.60;99.90;;;;;;5071258;28;20048;-69
2024/02/29 05:12:35;;;;;;;22.05;12.77;;;6.60;99.90;;;;;;5071192;28;20565;-69
2024/02/29 05:15:01;;;;;;;20.02;10.80;;;6.70;99.90;;;;;;5071387;28;20056;-69
2024/02/29 05:17:27;;;;;;;18.95;12.27;;;6.60;99.90;;;;;;5071539;28;20496;-69
2024/02/29 05:19:54;;;;;;;22.70;13.45;;;6.70;99.90;;;;;;5071036;28;20036;-69
2024/02/29 05:22:20;;;;;;;21.00;11.70;;;6.70;99.90;;;;;;5071002;28;20050;-69
2024/02/29 05:24:46;;;;;;;22.52;12.70;;;6.60;99.90;;;;;;5071416;28;20048;-69
2024/02/29 05:27:12;;;;;;;19.65;11.77;;;6.60;99.90;;;;;;5071458;28;20044;-69
2024/02/29 05:29:37;;;;;;;22.77;11.93;;;6.70;99.90;;;;;;5071126;28;20033;-69
2024/02/29 05:32:03;;;;;;;23.75;10.98;;;6.70;99.90;;;;;;5070918;28;20040;-71
2024/02/29 05:34:29;;;;;;;22.38;11.48;;;6.60;99.90;;;;;;5071335;28;20044;-69
2024/02/29 05:36:55;;;;;;;18.52;11.25;;;6.70;99.90;;;;;;5071106;28;20040;-69
2024/02/29 05:39:20;;;;;;;19.35;10.93;;;6.70;99.90;;;;;;5070739;28;20044;-69
2024/02/29 05:41:46;;;;;;;19.35;11.13;;;6.60;99.90;;;;;;5070921;28;20040;-71
2024/02/29 05:44:11;;;;;;;17.38;10.63;;;6.70;99.90;;;;;;5071260;28;20040;-69
2024/02/29 05:46:37;;;;;;;20.58;10.95;;;6.60;99.90;;;;;;5070946;28;20032;-69
2024/02/29 05:49:03;;;;;;;20.08;9.98;;;6.50;99.90;;;;;;5070839;28;20465;-69
2024/02/29 05:51:28;;;;;;;16.50;10.25;;;6.60;99.90;;;;;;5070447;28;20044;-69
2024/02/29 05:53:54;;;;;;;16.00;10.32;;;6.60;99.90;;;;;;5070913;28;20080;-69
2024/02/29 05:56:20;;;;;;;17.52;9.93;;;6.60;99.90;;;;;;5070829;28;20421;-69
2024/02/29 05:58:46;;;;;;;19.92;10.25;;;6.60;99.90;;;;;;5070807;28;20115;-69
2024/02/29 06:01:11;;;;;;;19.08;10.65;;;6.60;99.90;;;;;;5070640;28;20041;-69
2024/02/29 06:03:37;;;;;;;16.25;9.73;;;6.60;99.90;;;;;;5071074;28;20028;-69
2024/02/29 06:06:04;;;;;;;17.33;9.85;;;6.50;99.90;;;;;;5070778;28;20404;-69
2024/02/29 06:08:30;;;;;;;17.42;9.65;;;6.60;99.90;;;;;;5070501;28;20032;-69
2024/02/29 06:10:56;;;;;;;16.88;9.70;;;6.60;99.90;;;;;;5070592;28;20041;-69
2024/02/29 06:13:22;;;;;;;16.25;10.25;;;6.60;99.90;;;;;;5070930;28;20438;-69
2024/02/29 06:15:48;;;;;;;18.70;9.75;;;6.50;99.90;;;;;;5070757;28;20040;-69
2024/02/29 06:18:13;;;;;;;16.08;9.00;;;6.70;99.90;;;;;;5072092;28;20496;-69
2024/02/29 06:20:39;;;;;;;16.67;9.63;;;6.60;99.90;;;;;;5073894;28;20064;-69
2024/02/29 06:23:05;;;;;;;16.23;7.88;;;6.60;99.90;;;;;;5074292;28;20037;-69
2024/02/29 06:25:31;;;;;;;14.20;8.07;;;6.60;99.90;;;;;;5074428;28;20128;-68
2024/02/29 06:27:57;;;;;;;15.55;9.23;;;6.60;99.90;;;;;;5074205;28;20095;-69
2024/02/29 06:30:31;;;;;;;16.25;9.02;;;6.60;99.90;;;;;;5074040;28;20412;-69
2024/02/29 06:32:58;;;;;;;14.90;9.73;;;6.60;99.90;;;;;;5073780;28;20040;-69
2024/02/29 06:35:23;;;;;;;16.60;9.13;;;6.70;99.90;;;;;;5073860;28;20047;-69
2024/02/29 06:37:49;;;;;;;16.88;9.10;;;6.70;99.90;;;;;;5056071;28;20036;-69
2024/02/29 06:40:15;;;;;;;14.57;8.50;;;6.60;99.90;;;;;;5073820;28;20033;-69
2024/02/29 06:42:40;;;;;;;15.65;9.45;;;6.60;99.90;;;;;;5073466;28;20062;-69
2024/02/29 06:45:07;;;;;;;17.30;9.48;;;6.60;99.90;;;;;;5073370;28;20080;-68
2024/02/29 06:47:33;;;;;;;17.52;10.27;;;6.50;99.90;;;;;;5056022;28;20075;-69
2024/02/29 06:50:00;;;;;;;17.13;9.63;;;6.60;99.90;;;;;;5073585;28;20077;-69
2024/02/29 06:52:26;;;;;;;17.42;9.10;;;6.60;99.90;;;;;;5073557;28;20040;-69
2024/02/29 06:54:52;;;;;;;15.95;8.20;;;6.50;99.90;;;;;;5073872;28;20527;-69
2024/02/29 06:57:18;;;;;;;14.88;9.77;;;6.60;99.90;;;;;;5055980;28;20063;-69
2024/02/29 06:59:43;;;;;;;14.73;9.25;;;6.60;99.90;;;;;;5073536;28;20043;-69
2024/02/29 07:02:09;;;;;;;16.60;9.57;;;6.60;99.90;;;;;;5073210;28;20047;-69
2024/02/29 07:04:35;;;;;;;14.82;8.43;;;6.50;99.90;;;;;;5073424;28;20093;-69
2024/02/29 07:07:03;;;;;;;16.55;9.57;;;6.50;99.90;;;;;;5073575;28;20039;-69
2024/02/29 07:09:28;;;;;;;13.50;8.90;;;6.70;99.90;;;;;;5073240;28;20518;-69
2024/02/29 07:11:54;;;;;;;19.23;10.88;;;6.60;99.90;;;;;;5073041;28;20036;-68
2024/02/29 07:14:19;;;;;;;16.35;8.68;;;6.60;99.90;;;;;;5073494;28;20033;-68
2024/02/29 07:16:46;;;;;;;17.25;9.38;;;6.70;99.90;;;;;;5055382;28;20558;-69
2024/02/29 07:19:12;;;;;;;17.05;9.52;;;6.60;99.90;;;;;;5072843;28;20484;-69
2024/02/29 07:21:37;;;;;;;17.73;9.45;;;6.80;99.90;;;;;;5073051;28;20035;-69
2024/02/29 07:24:03;;;;;;;17.08;10.32;;;6.60;99.90;;;;;;5073430;28;20033;-69
2024/02/29 07:26:30;;;;;;;18.45;9.90;;;6.70;99.90;;;;;;5073166;28;20349;-69
2024/02/29 07:28:57;;;;;;;17.98;9.75;;;6.60;99.90;;;;;;5072597;28;20588;-69
2024/02/29 07:31:23;;;;;;;18.92;9.98;;;6.70;99.90;;;;;;5072552;28;20051;-69
2024/02/29 07:33:48;;;;;;;16.55;9.52;;;6.80;99.90;;;;;;5072933;28;20045;-69
2024/02/29 07:36:14;;;;;;;14.63;8.90;;;6.80;99.90;;;;;;5076179;28;20037;-69
2024/02/29 07:38:40;;;;;;;15.25;9.40;;;6.80;99.90;;;;;;5078895;28;20056;-69
2024/02/29 07:41:05;;;;;;;16.60;9.52;;;6.80;99.90;;;;;;5071968;28;20400;-69
2024/02/29 07:43:31;;;;;;;17.27;9.65;;;6.80;99.90;;;;;;5072409;28;20033;-69
2024/02/29 07:45:56;;;;;;;17.05;9.07;;;6.80;99.90;;;;;;5072412;28;20107;-69
2024/02/29 07:48:24;;;;;;;21.95;10.13;;;7.00;99.90;;;;;;5072334;28;20043;-69
2024/02/29 07:50:50;;;;;;;19.08;9.80;;;6.90;99.90;;;;;;5072343;28;20377;-68
2024/02/29 07:53:18;;;;;;;16.23;9.35;;;6.90;99.90;;;;;;5071724;28;20052;-68
2024/02/29 07:55:44;;;;;;;18.83;9.75;;;6.90;99.90;;;;;;5072265;28;20041;-68
2024/02/29 07:58:09;;;;;;;22.05;10.13;;;7.00;99.90;;;;;;5072216;28;20116;-69
2024/02/29 08:00:37;;;;;;;16.30;8.85;;;6.80;99.90;;;;;;5072095;28;20032;-69
2024/02/29 08:03:04;;;;;;;15.13;9.68;;;7.10;99.90;;;;;;5072374;28;20507;-68
2024/02/29 08:05:30;;;;;;;16.70;8.95;;;7.00;99.90;;;;;;5071930;28;20444;-68
2024/02/29 08:07:56;;;;;;;13.73;9.52;;;6.90;99.90;;;;;;5072106;28;20067;-69
2024/02/29 08:10:22;;;;;;;16.95;9.82;;;7.10;99.90;;;;;;5072265;28;20040;-71
2024/02/29 08:12:47;;;;;;;15.68;10.20;;;7.00;99.90;;;;;;5071842;28;20047;-71
2024/02/29 08:15:13;;;;;;;15.18;9.15;;;7.00;99.90;;;;;;5072185;28;20044;-71
2024/02/29 08:17:39;;;;;;;17.30;10.65;;;6.90;99.90;;;;;;5072015;28;20044;-71
2024/02/29 08:20:05;;;;;;;16.45;10.13;;;7.00;99.90;;;;;;5072002;28;20385;-71
2024/02/29 08:22:31;;;;;;;18.23;9.32;;;6.90;99.90;;;;;;5071768;28;20036;-71
2024/02/29 08:24:57;;;;;;;15.98;9.38;;;7.00;99.90;;;;;;5072018;28;20064;-71
2024/02/29 08:27:23;;;;;;;17.40;9.43;;;7.00;99.90;;;;;;5072121;28;20058;-71
2024/02/29 08:29:49;;;;;;;14.77;9.00;;;7.00;99.90;;;;;;5071718;28;20037;-71
2024/02/29 08:32:14;;;;;;;17.40;10.00;;;7.10;99.90;;;;;;5072058;28;20036;-71
2024/02/29 08:34:40;;;;;;;13.32;8.75;;;7.10;99.90;;;;;;5072083;28;20040;-71
2024/02/29 08:37:06;;;;;;;19.60;9.95;;;7.00;99.90;;;;;;5072168;28;20067;-71
2024/02/29 08:39:33;;;;;;;17.50;10.25;;;7.00;99.90;;;;;;5071789;28;20037;-71
2024/02/29 08:41:59;;;;;;;17.23;9.63;;;6.90;99.90;;;;;;5053143;28;20657;-71
2024/02/29 08:44:25;;;;;;;18.55;10.23;;;7.00;99.90;;;;;;5072035;28;20068;-71
2024/02/29 08:46:50;;;;;;;17.83;10.35;;;7.20;99.90;;;;;;5071554;28;20488;-71
2024/02/29 08:49:16;;;;;;;17.00;9.13;;;7.20;99.90;;;;;;5071795;28;20074;-71
2024/02/29 08:51:41;;;;;;;18.85;10.93;;;7.20;99.90;;;;;;5071462;28;20036;-71
2024/02/29 08:54:07;;;;;;;13.60;8.80;;;7.10;99.90;;;;;;5071814;28;20041;-71
2024/02/29 08:56:33;;;;;;;15.85;9.57;;;7.30;99.90;;;;;;5071629;28;20102;-71
2024/02/29 08:58:58;;;;;;;14.82;10.07;;;7.20;99.90;;;;;;5071262;28;20049;-71
2024/02/29 09:01:26;;;;;;;16.63;10.13;;;7.20;99.90;;;;;;5071115;28;20049;-71
2024/02/29 09:03:53;;;;;;;15.55;10.38;;;7.30;99.90;;;;;;5071516;28;20067;-71
2024/02/29 09:06:18;;;;;;;17.35;10.40;;;7.30;99.90;;;;;;5071557;28;20091;-71
2024/02/29 09:08:44;;;;;;;14.48;10.63;;;7.10;99.90;;;;;;5071386;28;20516;-71
2024/02/29 09:11:10;;;;;;;18.77;10.65;;;7.30;99.90;;;;;;5071006;28;20039;-71
2024/02/29 09:13:35;;;;;;;15.80;9.65;;;7.30;99.90;;;;;;5070624;28;20033;-71
2024/02/29 09:16:01;;;;;;;17.90;10.18;;;7.50;99.90;;;;;;5071069;28;20488;-71
2024/02/29 09:18:27;;;;;;;17.45;10.43;;;7.30;99.90;;;;;;5071125;28;20043;-71
2024/02/29 09:20:52;;;;;;;16.65;10.73;;;7.20;99.90;;;;;;5053178;28;20101;-71
2024/02/29 09:23:18;;;;;;;15.40;10.15;;;7.20;99.90;;;;;;5071524;28;20068;-71
2024/02/29 09:25:44;;;;;;;20.67;10.80;;;7.40;99.90;;;;;;5071199;28;20067;-71
2024/02/29 09:28:09;;;;;;;19.40;10.88;;;7.20;99.90;;;;;;5071079;28;20112;-71
2024/02/29 09:30:35;;;;;;;19.67;10.35;;;7.40;99.90;;;;;;5070786;28;20475;-71
2024/02/29 09:33:00;;;;;;;18.35;10.68;;;7.40;99.90;;;;;;5071420;28;20041;-71
2024/02/29 09:35:26;;;;;;;22.92;10.55;;;7.30;99.90;;;;;;5071353;28;20032;-70
2024/02/29 09:37:52;;;;;;;22.60;11.05;;;7.40;99.90;;;;;;5071332;28;20040;-71
2024/02/29 09:40:20;;;;;;;17.15;10.60;;;7.50;99.90;;;;;;5070924;28;20123;-71
2024/02/29 09:42:47;;;;;;;20.02;10.60;;;7.50;99.90;;;;;;5070689;28;20412;-71
2024/02/29 09:45:14;;;;;;;18.58;10.75;;;7.60;99.90;;;;;;5053333;28;20197;-71
2024/02/29 09:47:41;;;;;;;17.30;10.20;;;7.50;99.90;;;;;;5071321;28;20040;-71
2024/02/29 09:50:08;;;;;;;19.60;11.10;;;7.40;99.90;;;;;;5071064;28;20415;-71
2024/02/29 09:52:39;;;;;;;17.23;10.68;;;7.50;99.90;;;;;;5073118;28;20048;-71
2024/02/29 09:55:10;;;;;;;18.40;10.60;;;7.60;99.90;;;;;;5074919;28;20111;-71
2024/02/29 09:57:36;;;;;;;19.02;10.50;;;7.50;99.90;;;;;;5074914;28;20438;-71
2024/02/29 10:00:03;;;;;;;18.27;10.18;;;7.60;99.90;;;;;;5074760;28;20044;-71
2024/02/29 10:02:29;;;;;;;17.63;10.02;;;7.50;99.90;;;;;;5074492;28;20434;-71
2024/02/29 10:04:55;;;;;;;19.75;10.20;;;7.60;99.90;;;;;;5074789;28;20119;-71
2024/02/29 10:07:20;;;;;;;18.13;9.43;;;7.70;99.90;;;;;;5074752;28;20079;-71
2024/02/29 10:09:46;;;;;;;19.50;10.23;;;7.70;99.90;;;;;;5074396;28;20044;-71
2024/02/29 10:12:18;;;;;;;16.63;9.63;;;7.70;99.90;;;;;;5074027;28;20051;-71
2024/02/29 10:14:44;;;;;;;18.63;9.95;;;7.60;99.90;;;;;;5074724;28;20060;-71
2024/02/29 10:17:10;;;;;;;17.95;10.05;;;7.70;99.90;;;;;;5074468;28;20475;-71
2024/02/29 10:19:38;;;;;;;23.58;11.30;;;7.80;99.90;;;;;;5074114;28;20076;-71
2024/02/29 10:22:06;;;;;;;22.15;10.05;;;7.80;99.90;;;;;;5073967;28;20412;-71
2024/02/29 10:24:32;;;;;;;16.42;9.48;;;7.70;99.90;;;;;;5074248;28;20068;-71
2024/02/29 10:27:02;;;;;;;18.58;10.48;;;7.80;99.90;;;;;;5074459;28;20064;-71
2024/02/29 10:29:29;;;;;;;18.00;9.80;;;7.80;99.90;;;;;;5074232;28;20040;-71
2024/02/29 10:31:58;;;;;;;19.50;10.48;;;7.70;99.90;;;;;;5073900;28;20044;-71
2024/02/29 10:34:24;;;;;;;16.17;9.30;;;7.80;99.90;;;;;;5074252;28;20120;-71
2024/02/29 10:36:50;;;;;;;20.05;11.35;;;7.70;99.90;;;;;;5073987;28;20135;-71
2024/02/29 10:39:16;;;;;;;18.70;9.93;;;7.80;99.90;;;;;;5073625;28;20048;-71
2024/02/29 10:41:47;;;;;;;20.17;9.85;;;7.90;99.90;;;;;;5073541;28;20431;-71
2024/02/29 10:44:15;;;;;;;20.20;10.98;;;7.70;99.90;;;;;;5074251;28;20037;-71
2024/02/29 10:46:42;;;;;;;23.00;11.00;;;7.80;99.90;;;;;;5072863;28;20028;-71
2024/02/29 10:49:26;;;;;;;18.88;10.32;;;7.80;99.90;;;;;;5073518;28;20036;-71
2024/02/29 10:51:58;;;;;;;18.83;10.43;;;7.90;99.90;;;;;;5053507;28;20041;-71
2024/02/29 10:54:37;;;;;;;19.95;11.23;;;7.80;99.90;;;;;;5054081;28;20463;-71
2024/02/29 10:57:07;;;;;;;20.25;10.93;;;7.80;99.90;;;;;;5072083;28;20443;-71
2024/02/29 10:59:34;;;;;;;19.17;11.90;;;7.90;99.90;;;;;;5073377;28;20508;-71
2024/02/29 11:02:01;;;;;;;20.98;11.80;;;7.90;99.90;;;;;;5073060;28;20036;-71
2024/02/29 11:04:26;;;;;;;20.90;10.85;;;7.90;99.90;;;;;;5072858;28;20427;-72
2024/02/29 11:06:52;;;;;;;21.65;11.57;;;8.00;99.90;;;;;;5055477;28;20040;-71
2024/02/29 11:09:28;;;;;;;20.73;11.32;;;7.90;99.90;;;;;;5073434;28;20072;-73
2024/02/29 11:12:26;;;;;;;21.23;11.93;;;7.90;99.90;;;;;;5035329;28;20115;-73
2024/02/29 11:14:56;;;;;;;24.13;12.43;;;7.90;99.90;;;;;;5037801;28;20061;-73
2024/02/29 11:17:22;;;;;;;22.90;12.05;;;7.90;99.90;;;;;;5053662;28;20036;-72
2024/02/29 11:20:07;;;;;;;23.02;12.50;;;7.90;99.90;;;;;;5053236;28;20048;-73
2024/02/29 11:22:34;;;;;;;20.17;11.82;;;7.90;99.90;;;;;;5034914;28;20033;-71
2024/02/29 11:25:00;;;;;;;22.15;13.02;;;7.90;99.90;;;;;;5053078;28;20095;-71
2024/02/29 11:27:33;;;;;;;26.45;13.27;;;7.90;99.90;;;;;;5053523;28;20052;-71
2024/02/29 11:30:00;;;;;;;24.20;13.90;;;7.90;99.90;;;;;;5053075;28;20041;-71
2024/02/29 11:32:27;;;;;;;22.02;12.35;;;8.10;99.90;;;;;;5034856;28;20087;-71
2024/02/29 11:34:54;;;;;;;22.67;12.98;;;7.90;99.90;;;;;;5036513;28;20158;-71
2024/02/29 11:37:20;;;;;;;24.08;13.02;;;8.00;99.90;;;;;;5038191;28;20033;-71
2024/02/29 11:39:46;;;;;;;22.50;12.55;;;8.10;99.90;;;;;;5072496;28;20047;-71
2024/02/29 11:42:12;;;;;;;24.75;13.65;;;8.10;99.90;;;;;;5072551;28;20032;-71
2024/02/29 11:44:46;;;;;;;25.13;13.63;;;8.30;99.90;;;;;;5073070;28;20510;-71
2024/02/29 11:47:12;;;;;;;23.40;12.50;;;8.20;99.90;;;;;;5072620;28;20036;-71
2024/02/29 11:49:37;;;;;;;25.38;13.63;;;8.00;99.90;;;;;;5072642;28;20454;-71
2024/02/29 11:52:03;;;;;;;25.95;12.25;;;8.20;99.90;;;;;;5054226;28;20072;-71
2024/02/29 11:54:30;;;;;;;24.77;13.05;;;8.20;99.90;;;;;;5072820;28;20047;-71
2024/02/29 11:56:56;;;;;;;24.80;13.15;;;8.30;99.90;;;;;;5054815;28;20041;-71
2024/02/29 11:59:23;;;;;;;24.98;13.68;;;8.30;99.90;;;;;;5072375;28;20557;-71
2024/02/29 12:01:49;;;;;;;23.58;13.13;;;8.40;99.90;;;;;;5072163;28;20032;-71
2024/02/29 12:04:15;;;;;;;24.20;12.80;;;8.30;99.90;;;;;;5072567;28;20064;-71
2024/02/29 12:06:43;;;;;;;23.05;13.63;;;8.40;99.90;;;;;;5072217;28;20040;-71
2024/02/29 12:09:12;;;;;;;24.35;13.20;;;8.40;99.90;;;;;;5054521;28;20127;-71
2024/02/29 12:11:39;;;;;;;22.67;12.77;;;8.40;99.90;;;;;;5071711;28;20043;-71
2024/02/29 12:14:07;;;;;;;23.35;13.27;;;8.40;99.90;;;;;;5072003;28;20056;-71
2024/02/29 12:16:35;;;;;;;21.92;12.77;;;8.40;99.90;;;;;;5071124;28;20036;-71
2024/02/29 12:19:01;;;;;;;20.10;12.30;;;8.50;99.90;;;;;;5069067;28;20124;-71
2024/02/29 12:21:27;;;;;;;20.92;12.10;;;8.30;99.90;;;;;;5076755;28;20082;-71
2024/02/29 12:23:54;;;;;;;20.65;12.45;;;8.40;99.90;;;;;;5082552;28;20479;-71
2024/02/29 12:26:21;;;;;;;22.75;12.75;;;8.40;99.90;;;;;;5078311;28;20037;-71
2024/02/29 12:28:48;;;;;;;22.90;12.05;;;8.40;99.90;;;;;;5081446;28;20131;-72
2024/02/29 12:31:14;;;;;;;19.77;11.77;;;8.50;99.90;;;;;;5081460;28;20037;-72
2024/02/29 12:33:42;;;;;;;20.63;12.02;;;8.50;99.90;;;;;;5065459;28;20047;-72